createdAt,value
2017-08-26T00:00:03.030Z,0
2017-08-26T00:05:03.507Z,0
2017-08-26T00:10:03.085Z,0
2017-08-26T00:15:03.481Z,0
2017-08-26T00:20:02.863Z,0
2017-08-26T00:25:03.241Z,0
2017-08-26T00:30:02.818Z,0
2017-08-26T00:35:03.228Z,0
2017-08-26T00:40:02.672Z,0
2017-08-26T00:45:03.090Z,0
2017-08-26T00:50:03.522Z,0
2017-08-26T00:55:02.969Z,0
2017-08-26T01:00:03.388Z,0
2017-08-26T01:05:02.853Z,0
2017-08-26T01:10:03.374Z,0
2017-08-26T01:15:02.757Z,0
2017-08-26T01:20:03.292Z,0
2017-08-26T01:25:02.801Z,0
2017-08-26T01:30:03.380Z,0
2017-08-26T01:35:02.763Z,0
2017-08-26T01:40:03.345Z,0
2017-08-26T01:45:02.833Z,0
2017-08-26T01:50:03.290Z,0
2017-08-26T01:55:02.803Z,0
2017-08-26T02:00:03.172Z,0
2017-08-26T02:05:03.559Z,0
2017-08-26T02:10:02.985Z,0
2017-08-26T02:15:03.495Z,0
2017-08-26T02:20:03.040Z,0
2017-08-26T02:25:03.439Z,0
2017-08-26T02:30:02.954Z,0
2017-08-26T02:35:03.433Z,0
2017-08-26T02:40:02.875Z,0
2017-08-26T02:45:03.344Z,0
2017-08-26T02:50:02.731Z,0
2017-08-26T02:55:03.147Z,0
2017-08-26T03:00:02.663Z,0
2017-08-26T03:05:03.214Z,0
2017-08-26T03:10:02.814Z,0
2017-08-26T03:20:03.087Z,0
2017-08-26T03:25:02.718Z,0
2017-08-26T03:30:03.308Z,0
2017-08-26T03:35:02.718Z,0
2017-08-26T03:40:03.373Z,0
2017-08-26T03:45:02.874Z,0
2017-08-26T03:50:03.422Z,0
2017-08-26T03:55:02.914Z,0
2017-08-26T04:00:03.279Z,0
2017-08-26T04:05:02.838Z,0
2017-08-26T04:10:03.324Z,0
2017-08-26T04:15:02.696Z,0
2017-08-26T04:20:03.569Z,0
2017-08-26T04:25:03.300Z,0
2017-08-26T04:30:02.831Z,0
2017-08-26T04:35:03.305Z,0
2017-08-26T04:40:02.861Z,0
2017-08-26T04:45:03.280Z,0
2017-08-26T04:50:02.809Z,0
2017-08-26T04:55:03.233Z,0
2017-08-26T05:00:02.661Z,0
2017-08-26T05:05:03.108Z,0
2017-08-26T05:10:02.717Z,0
2017-08-26T05:15:03.107Z,0
2017-08-26T05:20:02.662Z,0
2017-08-26T05:25:03.061Z,0
2017-08-26T05:30:03.476Z,0
2017-08-26T05:35:02.851Z,0
2017-08-26T05:40:03.429Z,0
2017-08-26T05:45:02.934Z,0
2017-08-26T05:50:03.467Z,0
2017-08-26T05:55:02.949Z,0
2017-08-26T06:00:03.479Z,0
2017-08-26T06:05:03.005Z,0
2017-08-26T06:10:02.689Z,0
2017-08-26T06:15:03.300Z,0
2017-08-26T06:20:02.745Z,0
2017-08-26T06:25:03.284Z,0
2017-08-26T06:30:02.695Z,0
2017-08-26T06:35:03.245Z,0
2017-08-26T06:40:02.666Z,0
2017-08-26T06:45:03.160Z,0
2017-08-26T06:50:02.693Z,0
2017-08-26T06:55:03.126Z,0
2017-08-26T07:00:03.661Z,0
2017-08-26T07:05:03.231Z,0
2017-08-26T07:10:02.689Z,0
2017-08-26T07:15:03.211Z,0
2017-08-26T07:20:02.713Z,0
2017-08-26T07:25:03.246Z,0
2017-08-26T07:30:02.700Z,0
2017-08-26T07:35:03.251Z,0
2017-08-26T07:40:02.820Z,0
2017-08-26T07:45:03.369Z,0
2017-08-26T07:50:02.792Z,0
2017-08-26T07:55:03.344Z,0
2017-08-26T08:00:02.769Z,0
2017-08-26T08:05:03.343Z,0
2017-08-26T08:10:02.832Z,0
2017-08-26T08:15:03.245Z,0
2017-08-26T08:20:02.610Z,0
2017-08-26T08:25:03.141Z,0
2017-08-26T08:30:03.151Z,0
2017-08-26T08:35:02.648Z,0
2017-08-26T08:45:02.706Z,0
2017-08-26T08:50:03.332Z,0
2017-08-26T08:55:02.888Z,0
2017-08-26T09:00:03.407Z,0
2017-08-26T09:05:03.124Z,0
2017-08-26T09:10:02.716Z,0
2017-08-26T09:15:03.404Z,0
2017-08-26T09:20:03.154Z,0
2017-08-26T09:25:02.578Z,0
2017-08-26T09:30:03.037Z,0
2017-08-26T09:35:02.610Z,0
2017-08-26T09:40:03.193Z,0
2017-08-26T09:45:02.661Z,0
2017-08-26T09:50:03.202Z,0
2017-08-26T09:55:02.729Z,0
2017-08-26T10:00:02.733Z,2
2017-08-26T10:05:03.270Z,0
2017-08-26T10:10:02.719Z,0
2017-08-26T10:15:03.114Z,0
2017-08-26T10:20:02.670Z,0
2017-08-26T10:25:03.224Z,0
2017-08-26T10:30:02.764Z,0
2017-08-26T10:35:03.205Z,0
2017-08-26T10:40:03.531Z,0
2017-08-26T10:45:03.029Z,0
2017-08-26T10:50:03.420Z,0
2017-08-26T10:55:02.835Z,0
2017-08-26T11:00:03.123Z,0
2017-08-26T11:05:02.585Z,0
2017-08-26T11:10:03.158Z,0
2017-08-26T11:15:02.632Z,0
2017-08-26T11:20:03.113Z,1
2017-08-26T11:25:03.533Z,0
2017-08-26T11:30:02.931Z,2
2017-08-26T11:35:03.329Z,0
2017-08-26T11:40:02.789Z,0
2017-08-26T11:45:03.378Z,1
2017-08-26T11:50:02.727Z,0
2017-08-26T11:55:03.102Z,0
2017-08-26T12:00:02.605Z,0
2017-08-26T12:05:03.188Z,2
2017-08-26T12:10:02.572Z,0
2017-08-26T12:15:03.129Z,0
2017-08-26T12:20:02.587Z,0
2017-08-26T12:25:02.972Z,0
2017-08-26T12:30:03.352Z,2
2017-08-26T12:35:02.907Z,0
2017-08-26T12:40:03.465Z,3
2017-08-26T12:45:02.946Z,0
2017-08-26T12:50:03.341Z,0
2017-08-26T12:55:02.744Z,3
2017-08-26T13:00:03.155Z,0
2017-08-26T13:05:02.744Z,3
2017-08-26T13:10:03.329Z,4
2017-08-26T13:15:02.844Z,0
2017-08-26T13:20:03.304Z,0
2017-08-26T13:25:02.824Z,5
2017-08-26T13:30:03.363Z,3
2017-08-26T13:35:02.720Z,4
2017-08-26T13:40:03.166Z,5
2017-08-26T13:45:03.545Z,3
2017-08-26T13:50:03.066Z,3
2017-08-26T13:55:03.457Z,2
2017-08-26T14:00:02.962Z,2
2017-08-26T14:05:03.471Z,3
2017-08-26T14:10:03.015Z,6
2017-08-26T14:15:03.532Z,3
2017-08-26T14:20:02.901Z,7
2017-08-26T14:25:03.322Z,0
2017-08-26T14:30:02.671Z,1
2017-08-26T14:35:03.095Z,2
2017-08-26T14:40:02.689Z,3
2017-08-26T14:45:03.091Z,4
2017-08-26T14:50:03.474Z,7
2017-08-26T14:55:02.965Z,2
2017-08-26T15:00:03.370Z,4
2017-08-26T15:05:02.936Z,3
2017-08-26T15:10:03.517Z,3
2017-08-26T15:15:02.901Z,3
2017-08-26T15:20:03.428Z,3
2017-08-26T15:25:03.075Z,3
2017-08-26T15:30:03.471Z,1
2017-08-26T15:35:02.907Z,3
2017-08-26T15:40:03.501Z,3
2017-08-26T15:45:02.856Z,5
2017-08-26T15:50:03.222Z,3
2017-08-26T15:55:02.706Z,4
2017-08-26T16:00:03.166Z,2
2017-08-26T16:05:02.604Z,6
2017-08-26T16:10:03.125Z,5
2017-08-26T16:15:03.513Z,8
2017-08-26T16:20:02.901Z,2
2017-08-26T16:25:03.293Z,6
2017-08-26T16:30:02.772Z,4
2017-08-26T16:35:03.186Z,3
2017-08-26T16:40:02.805Z,3
2017-08-26T16:45:03.228Z,0
2017-08-26T16:50:02.621Z,3
2017-08-26T16:55:03.027Z,2
2017-08-26T17:00:03.416Z,1
2017-08-26T17:05:03.021Z,3
2017-08-26T17:10:02.602Z,4
2017-08-26T17:15:02.999Z,1
2017-08-26T17:20:03.475Z,0
2017-08-26T17:25:02.781Z,0
2017-08-26T17:30:03.184Z,0
2017-08-26T17:35:02.589Z,1
2017-08-26T17:40:02.993Z,0
2017-08-26T17:45:03.555Z,0
2017-08-26T17:50:03.078Z,0
2017-08-26T17:55:03.394Z,0
2017-08-26T18:00:02.763Z,0
2017-08-26T18:05:03.117Z,0
2017-08-26T18:10:02.566Z,0
2017-08-26T18:15:02.957Z,0
2017-08-26T18:20:03.375Z,0
2017-08-26T18:25:02.744Z,0
2017-08-26T18:30:03.100Z,0
2017-08-26T18:35:02.700Z,0
2017-08-26T18:40:03.230Z,0
2017-08-26T18:45:02.642Z,0
2017-08-26T18:50:03.128Z,0
2017-08-26T18:55:03.470Z,0
2017-08-26T19:00:02.817Z,0
2017-08-26T19:05:03.375Z,0
2017-08-26T19:10:02.885Z,0
2017-08-26T19:15:03.300Z,0
2017-08-26T19:20:02.684Z,0
2017-08-26T19:25:03.079Z,0
2017-08-26T19:30:02.636Z,0
2017-08-26T19:35:03.205Z,0
2017-08-26T19:40:02.718Z,0
2017-08-26T19:45:03.138Z,0
2017-08-26T19:50:03.524Z,1
2017-08-26T19:55:02.860Z,0
2017-08-26T20:00:03.277Z,0
2017-08-26T20:05:02.861Z,0
2017-08-26T20:10:03.427Z,0
2017-08-26T20:15:03.207Z,0
2017-08-26T20:20:02.701Z,0
2017-08-26T20:25:03.081Z,0
2017-08-26T20:30:02.609Z,0
2017-08-26T20:35:03.028Z,0
2017-08-26T20:40:03.461Z,0
2017-08-26T20:45:02.830Z,0
2017-08-26T20:50:03.365Z,0
2017-08-26T20:55:02.911Z,0
2017-08-26T21:00:03.502Z,0
2017-08-26T21:05:03.105Z,0
2017-08-26T21:10:03.575Z,0
2017-08-26T21:15:03.116Z,0
2017-08-26T21:20:03.501Z,0
2017-08-26T21:25:02.953Z,0
2017-08-26T21:30:03.519Z,0
2017-08-26T21:35:02.884Z,0
2017-08-26T21:40:03.447Z,0
2017-08-26T21:45:03.005Z,0
2017-08-26T21:50:03.525Z,0
2017-08-26T21:55:02.892Z,1
2017-08-26T22:00:03.291Z,0
2017-08-26T22:05:02.703Z,0
2017-08-26T22:10:03.134Z,0
2017-08-26T22:15:03.533Z,0
2017-08-26T22:20:03.026Z,0
2017-08-26T22:25:03.515Z,1
2017-08-26T22:30:02.998Z,2
2017-08-26T22:35:03.413Z,0
2017-08-26T22:45:03.508Z,0
2017-08-26T22:50:02.983Z,0
2017-08-26T22:55:03.425Z,0
2017-08-26T23:00:03.207Z,0
2017-08-26T23:05:03.303Z,0
2017-08-26T23:10:02.855Z,0
2017-08-26T23:15:03.284Z,0
2017-08-26T23:20:02.836Z,0
2017-08-26T23:25:03.437Z,0
2017-08-26T23:30:02.915Z,0
2017-08-26T23:35:03.550Z,0
2017-08-26T23:40:03.218Z,0
2017-08-26T23:45:02.770Z,0
2017-08-26T23:50:03.164Z,0
2017-08-26T23:55:03.572Z,0
